Time;durP1;ratioP1;P1;durP2;ratioP2;P2;SDS_P1;SDS_P2;PMS_P1;PMS_P2;Temp;Humidity;BMP_temperature;BMP_pressure;BME280_temperature;BME280_humidity;BME280_pressure;Samples;Min_cycle;Max_cycle;Signal;HPM_P1;HPM_P2
2022/01/31 00:02:24;;;;;;;34.83;4.00;;;;;;;2.17;67.28;98973.06;8380769;28;20075;-77
2022/01/31 00:06:25;;;;;;;23.08;4.53;;;;;;;2.08;67.21;98964.72;8393820;28;20051;-78
2022/01/31 00:10:31;;;;;;;26.08;3.13;;;;;;;1.97;67.59;98947.88;8369226;28;20393;-78
2022/01/31 00:18:32;;;;;;;26.48;3.83;;;;;;;1.81;67.44;98964.81;8374802;28;20072;-78
2022/01/31 00:22:33;;;;;;;30.90;3.92;;;;;;;1.77;67.72;98953.06;8364977;28;20516;-78
2022/01/31 00:26:34;;;;;;;18.40;3.80;;;;;;;1.74;68.27;98948.28;8370176;28;20068;-77
2022/01/31 00:30:35;;;;;;;27.13;3.25;;;;;;;1.68;68.50;98958.06;8366609;28;20132;-77
2022/01/31 00:34:35;;;;;;;30.63;3.55;;;;;;;1.58;68.86;98949.22;8392700;28;20090;-76
2022/01/31 00:38:36;;;;;;;18.02;3.45;;;;;;;1.46;69.81;98951.22;8394691;28;20086;-77
2022/01/31 00:42:37;;;;;;;31.27;3.90;;;;;;;1.41;70.42;98943.19;8383262;28;20132;-76
2022/01/31 00:46:42;;;;;;;40.38;4.15;;;;;;;1.41;70.51;98921.91;8362204;28;20063;-77
2022/01/31 00:50:46;;;;;;;25.80;3.13;;;;;;;1.46;70.62;98909.44;8365484;28;20136;-76
2022/01/31 00:54:47;;;;;;;27.13;3.78;;;;;;;1.52;70.46;98902.31;8366349;28;20048;-77
2022/01/31 00:58:48;;;;;;;32.33;4.75;;;;;;;1.52;70.66;98897.00;8381485;28;20156;-78
2022/01/31 01:02:49;;;;;;;28.70;3.60;;;;;;;1.57;70.63;98905.00;8326556;28;20052;-76
2022/01/31 01:06:50;;;;;;;26.83;3.28;;;;;;;1.62;70.01;98903.19;8361515;28;20056;-77
2022/01/31 01:10:51;;;;;;;21.80;3.22;;;;;;;1.59;70.26;98897.56;8390018;28;20491;-77
2022/01/31 01:14:52;;;;;;;32.47;3.92;;;;;;;1.67;70.19;98897.09;8388141;28;20508;-77
2022/01/31 01:18:53;;;;;;;23.15;3.20;;;;;;;1.58;70.39;98880.00;8393994;28;20044;-78
2022/01/31 01:22:54;;;;;;;23.60;3.25;;;;;;;1.67;69.90;98875.81;8393932;28;20135;-78
2022/01/31 01:26:55;;;;;;;29.95;3.47;;;;;;;1.66;69.99;98871.53;8393005;28;20625;-78
2022/01/31 01:30:57;;;;;;;23.88;3.03;;;;;;;1.54;70.20;98862.91;8351036;28;20063;-77
2022/01/31 01:35:02;;;;;;;26.70;4.45;;;;;;;1.56;70.13;98856.31;8367304;28;20045;-77
2022/01/31 01:39:03;;;;;;;17.77;2.97;;;;;;;1.49;70.32;98860.22;8367270;28;20083;-79
2022/01/31 01:43:04;;;;;;;29.52;3.45;;;;;;;1.49;70.10;98849.56;8367167;28;20041;-78
2022/01/31 01:47:04;;;;;;;29.08;3.88;;;;;;;1.51;70.17;98844.81;8392353;28;20041;-78
2022/01/31 01:51:06;;;;;;;19.58;3.33;;;;;;;1.51;70.04;98836.84;8380996;28;20102;-77
2022/01/31 01:55:07;;;;;;;29.45;3.60;;;;;;;1.51;70.31;98848.28;8394541;28;20044;-76
2022/01/31 01:59:10;;;;;;;28.70;3.30;;;;;;;1.42;70.59;98849.03;8399085;28;20049;-76
2022/01/31 02:03:11;;;;;;;26.48;3.30;;;;;;;1.36;70.78;98839.38;8398912;28;20068;-76
2022/01/31 02:07:12;;;;;;;31.40;3.30;;;;;;;1.38;71.08;98834.59;8393929;28;20092;-76
2022/01/31 02:11:14;;;;;;;42.00;3.00;;;;;;;1.32;71.01;98835.66;8346866;28;20453;-78
2022/01/31 02:15:16;;;;;;;20.23;2.53;;;;;;;1.39;70.75;98822.91;8399197;28;20045;-75
2022/01/31 02:19:18;;;;;;;24.85;3.28;;;;;;;1.41;70.90;98820.81;8397443;28;20048;-77
2022/01/31 02:23:20;;;;;;;23.58;2.58;;;;;;;1.33;70.88;98818.59;8383174;28;20082;-77
2022/01/31 02:27:35;;;;;;;25.58;2.85;;;;;;;1.29;71.26;98813.00;8371408;28;20056;-78
2022/01/31 02:31:36;;;;;;;31.55;4.68;;;;;;;1.35;70.75;98805.84;8366366;28;20063;-78
2022/01/31 02:35:36;;;;;;;30.48;3.50;;;;;;;1.35;70.66;98800.53;8393469;28;20478;-77
2022/01/31 02:39:37;;;;;;;22.90;3.45;;;;;;;1.37;70.77;98798.44;8362168;28;20128;-77
2022/01/31 02:43:38;;;;;;;27.42;3.30;;;;;;;1.35;70.80;98784.56;8396149;28;20163;-77
2022/01/31 02:47:42;;;;;;;33.40;3.35;;;;;;;1.37;71.26;98782.47;8386727;28;20567;-78
2022/01/31 02:51:48;;;;;;;33.58;3.85;;;;;;;1.41;71.05;98778.22;8365152;28;20095;-78
2022/01/31 02:55:49;;;;;;;30.42;3.08;;;;;;;1.51;70.89;98764.97;8350670;28;20049;-78
2022/01/31 02:59:50;;;;;;;34.08;4.00;;;;;;;1.53;71.40;98754.88;8369638;28;20055;-77
2022/01/31 03:03:51;;;;;;;28.50;3.20;;;;;;;1.56;70.99;98754.34;8394376;28;20059;-77
2022/01/31 03:07:52;;;;;;;30.40;3.65;;;;;;;1.55;71.17;98742.09;8387816;28;20056;-77
2022/01/31 03:11:53;;;;;;;19.95;3.40;;;;;;;1.59;71.34;98745.84;8386072;28;20082;-77
2022/01/31 03:15:54;;;;;;;31.13;3.40;;;;;;;1.57;71.24;98740.00;8396751;28;20128;-77
2022/01/31 03:19:55;;;;;;;25.27;2.92;;;;;;;1.46;71.66;98733.03;8396808;28;20059;-78
2022/01/31 03:23:55;;;;;;;34.50;3.90;;;;;;;1.39;72.21;98711.16;8333030;28;20049;-78
2022/01/31 03:27:56;;;;;;;32.30;4.22;;;;;;;1.35;72.39;98704.75;8378143;28;20068;-77
2022/01/31 03:31:57;;;;;;;32.20;3.83;;;;;;;1.41;72.12;98698.41;8385404;28;20515;-77
2022/01/31 03:35:58;;;;;;;37.53;4.25;;;;;;;1.39;72.46;98697.84;8396104;28;20411;-78
2022/01/31 03:39:59;;;;;;;30.45;4.15;;;;;;;1.41;72.53;98687.75;8345207;28;20044;-76
2022/01/31 03:44:00;;;;;;;32.63;4.43;;;;;;;1.49;71.98;98679.28;8378730;28;20456;-78
2022/01/31 03:48:04;;;;;;;26.90;4.40;;;;;;;1.52;72.02;98668.94;8389056;28;20052;-76
2022/01/31 03:52:06;;;;;;;34.10;4.75;;;;;;;1.44;72.29;98660.63;8346052;28;20420;-77
2022/01/31 03:56:06;;;;;;;34.95;4.13;;;;;;;1.42;72.57;98652.91;8377104;28;20043;-77
2022/01/31 04:00:10;;;;;;;22.20;3.63;;;;;;;1.46;72.07;98669.16;8395619;28;20041;-77
2022/01/31 04:04:11;;;;;;;33.50;4.70;;;;;;;1.45;72.74;98646.25;8395072;28;20056;-77
2022/01/31 04:08:12;;;;;;;28.40;3.78;;;;;;;1.46;72.48;98642.53;8391569;28;20090;-78
2022/01/31 04:12:13;;;;;;;29.20;3.50;;;;;;;1.48;72.83;98640.44;8373988;28;20543;-77
2022/01/31 04:16:14;;;;;;;32.88;5.10;;;;;;;1.46;72.80;98622.06;8383184;28;20052;-77
2022/01/31 04:20:16;;;;;;;27.55;6.05;;;;;;;1.53;72.16;98619.16;8395073;28;20040;-77
2022/01/31 04:24:23;;;;;;;27.40;4.68;;;;;;;1.43;73.00;98605.84;8390931;28;20476;-77
2022/01/31 04:28:32;;;;;;;29.20;3.22;;;;;;;1.46;72.54;98606.09;8364990;28;20049;-77
2022/01/31 04:32:33;;;;;;;23.00;3.17;;;;;;;1.53;71.90;98600.53;8364591;28;20439;-75
2022/01/31 04:36:35;;;;;;;21.13;3.55;;;;;;;1.59;72.03;98599.47;8373051;28;20098;-76
2022/01/31 04:40:36;;;;;;;26.08;3.33;;;;;;;1.59;72.10;98596.81;8325231;28;20056;-77
2022/01/31 04:44:37;;;;;;;25.83;3.22;;;;;;;1.57;72.18;98596.28;8360951;28;20053;-76
2022/01/31 04:48:38;;;;;;;24.92;3.15;;;;;;;1.55;72.46;98587.75;8375394;28;20055;-75
2022/01/31 04:52:42;;;;;;;22.88;3.35;;;;;;;1.50;73.11;98590.41;8376683;28;20119;-77
2022/01/31 04:56:44;;;;;;;25.45;3.78;;;;;;;1.62;72.13;98582.97;8377489;28;20049;-77
2022/01/31 05:00:44;;;;;;;25.98;3.30;;;;;;;1.61;72.45;98576.06;8361765;28;20477;-77
2022/01/31 05:04:45;;;;;;;29.33;3.75;;;;;;;1.71;71.95;98568.09;8365028;28;20060;-77
2022/01/31 05:08:46;;;;;;;29.00;3.10;;;;;;;1.73;71.81;98563.31;8373539;28;20477;-77
2022/01/31 05:12:47;;;;;;;21.50;4.53;;;;;;;1.66;72.42;98557.44;8401298;28;20057;-77
2022/01/31 05:16:48;;;;;;;22.15;3.38;;;;;;;1.70;72.57;98558.50;8382524;28;20072;-77
2022/01/31 05:20:48;;;;;;;29.63;3.63;;;;;;;1.74;72.56;98559.59;8378142;28;20056;-74
2022/01/31 05:24:49;;;;;;;31.30;3.63;;;;;;;1.76;72.47;98546.78;8384763;28;20472;-77
2022/01/31 05:28:51;;;;;;;32.50;4.30;;;;;;;1.70;72.99;98542.53;8381462;28;20079;-77
2022/01/31 05:32:52;;;;;;;32.45;5.45;;;;;;;1.74;72.98;98527.66;8400622;28;20519;-77
2022/01/31 05:36:55;;;;;;;30.67;4.85;;;;;;;1.63;73.54;98520.72;8382723;28;20055;-77
2022/01/31 05:40:56;;;;;;;22.80;5.07;;;;;;;1.70;72.94;98515.91;8400318;28;20056;-76
2022/01/31 05:44:57;;;;;;;37.50;5.00;;;;;;;1.60;73.79;98505.25;8400427;28;20503;-76
2022/01/31 05:48:57;;;;;;;29.58;4.38;;;;;;;1.60;73.75;98486.63;8381699;28;20126;-77
2022/01/31 05:52:58;;;;;;;36.92;4.95;;;;;;;1.68;73.28;98475.47;8381967;28;20436;-78
2022/01/31 05:56:59;;;;;;;30.98;4.20;;;;;;;1.66;73.55;98472.25;8399868;28;20072;-76
2022/01/31 06:01:00;;;;;;;37.22;4.78;;;;;;;1.62;74.10;98471.22;8399446;28;20424;-77
2022/01/31 06:05:02;;;;;;;41.53;4.78;;;;;;;1.64;74.25;98453.88;8399349;28;20139;-77
2022/01/31 06:09:04;;;;;;;37.83;5.18;;;;;;;1.60;74.67;98452.03;8331193;28;20044;-78
2022/01/31 06:13:04;;;;;;;31.88;6.00;;;;;;;1.57;74.81;98452.56;8347156;28;20056;-78
2022/01/31 06:17:05;;;;;;;44.53;6.18;;;;;;;1.58;74.73;98454.19;8397869;28;20066;-77
2022/01/31 06:21:06;;;;;;;37.08;6.03;;;;;;;1.52;75.03;98444.59;8399008;28;20113;-77
2022/01/31 06:25:07;;;;;;;42.97;6.32;;;;;;;1.51;75.01;98435.81;8399026;28;20045;-78
2022/01/31 06:29:08;;;;;;;35.78;5.07;;;;;;;1.61;74.75;98427.03;8398874;28;20066;-78
2022/01/31 06:33:09;;;;;;;39.15;5.63;;;;;;;1.57;74.98;98431.28;8380665;28;20072;-77
2022/01/31 06:37:09;;;;;;;31.55;4.82;;;;;;;1.51;75.29;98416.38;8398450;28;20500;-78
2022/01/31 06:41:11;;;;;;;52.50;6.10;;;;;;;1.52;75.84;98413.47;8398300;28;20048;-78
2022/01/31 06:45:14;;;;;;;38.42;4.82;;;;;;;1.48;75.82;98411.59;8398293;28;20048;-77
2022/01/31 06:49:16;;;;;;;24.23;4.10;;;;;;;1.53;75.76;98399.09;8398015;28;20463;-76
2022/01/31 06:53:18;;;;;;;32.97;4.30;;;;;;;1.54;75.56;98400.66;8398169;28;20162;-78
2022/01/31 06:57:22;;;;;;;33.78;4.70;;;;;;;1.65;75.12;98390.81;8346775;28;20423;-77
2022/01/31 07:01:25;;;;;;;35.05;4.57;;;;;;;1.58;75.31;98384.97;8398116;28;20757;-78
2022/01/31 07:05:26;;;;;;;31.48;4.80;;;;;;;1.52;75.79;98380.72;8397451;28;20423;-77
2022/01/31 07:09:27;;;;;;;35.65;6.35;;;;;;;1.46;76.06;98379.13;8345762;28;20072;-78
2022/01/31 07:13:39;;;;;;;34.97;6.70;;;;;;;1.49;76.22;98370.59;8397203;28;20053;-76
2022/01/31 07:17:40;;;;;;;35.15;5.60;;;;;;;1.54;75.93;98367.94;8397355;28;20040;-76
2022/01/31 07:21:49;;;;;;;51.58;6.53;;;;;;;1.53;75.87;98369.03;8397312;28;20056;-76
2022/01/31 07:25:50;;;;;;;41.15;5.35;;;;;;;1.56;75.74;98365.81;8396753;28;20127;-76
2022/01/31 07:29:51;;;;;;;35.90;5.55;;;;;;;1.64;75.05;98359.94;8396950;28;20124;-76
2022/01/31 07:33:52;;;;;;;46.10;5.32;;;;;;;1.67;74.49;98362.06;8396641;28;20064;-78
2022/01/31 07:37:53;;;;;;;29.10;4.75;;;;;;;1.63;75.06;98355.69;8396872;28;20094;-76
2022/01/31 07:41:53;;;;;;;40.10;5.35;;;;;;;1.68;74.50;98358.34;8344842;28;20044;-78
2022/01/31 07:45:54;;;;;;;37.85;5.18;;;;;;;1.69;74.37;98354.63;8396733;28;20067;-77
2022/01/31 07:49:55;;;;;;;41.65;6.05;;;;;;;1.71;74.29;98341.84;8396545;28;20060;-76
2022/01/31 07:53:56;;;;;;;51.95;6.10;;;;;;;1.66;74.55;98333.84;8396756;28;20048;-77
2022/01/31 07:57:57;;;;;;;31.83;5.18;;;;;;;1.67;74.87;98330.13;8395936;28;20261;-77
2022/01/31 08:01:58;;;;;;;34.78;5.57;;;;;;;1.70;74.52;98335.72;8395833;28;20048;-78
2022/01/31 08:06:00;;;;;;;28.92;5.13;;;;;;;1.82;73.61;98319.44;8396651;28;20045;-78
2022/01/31 08:10:03;;;;;;;37.55;7.07;;;;;;;1.80;73.65;98297.63;8395746;28;20052;-77
2022/01/31 08:14:09;;;;;;;35.28;5.95;;;;;;;1.85;73.67;98304.81;8396034;28;20063;-76
2022/01/31 08:18:13;;;;;;;37.53;5.95;;;;;;;1.83;73.71;98302.41;8395711;28;20401;-78
2022/01/31 08:22:13;;;;;;;32.88;5.05;;;;;;;1.84;73.80;98288.03;8395511;28;20131;-78
2022/01/31 08:26:16;;;;;;;36.45;5.53;;;;;;;1.89;73.21;98285.34;8395416;28;20120;-78
2022/01/31 08:30:23;;;;;;;36.22;5.72;;;;;;;1.94;72.71;98282.66;8395279;28;20055;-76
2022/01/31 08:38:44;;;;;;;40.72;4.95;;;;;;;1.92;72.65;98263.50;8394158;28;20053;-77
2022/01/31 08:42:45;;;;;;;37.08;4.55;;;;;;;1.92;72.70;98263.50;8343135;28;20488;-77
2022/01/31 08:46:47;;;;;;;41.15;5.07;;;;;;;1.90;72.84;98255.00;8394764;28;20056;-77
2022/01/31 08:50:48;;;;;;;43.10;5.80;;;;;;;1.92;73.11;98252.84;8377555;28;20499;-77
2022/01/31 08:54:48;;;;;;;39.88;5.72;;;;;;;1.92;73.47;98247.53;8395058;28;20131;-76
2022/01/31 08:58:50;;;;;;;42.20;5.25;;;;;;;1.97;72.74;98242.16;8395103;28;20049;-77
2022/01/31 09:03:04;;;;;;;48.63;6.15;;;;;;;2.00;73.13;98241.63;8394680;28;20044;-76
2022/01/31 09:07:05;;;;;;;37.63;5.00;;;;;;;2.06;72.47;98237.84;8394444;28;20049;-77
2022/01/31 09:11:06;;;;;;;31.52;4.90;;;;;;;2.01;72.47;98224.56;8342544;28;20086;-77
2022/01/31 09:15:11;;;;;;;35.58;4.82;;;;;;;2.06;72.46;98224.53;8342799;28;20124;-77
2022/01/31 09:19:12;;;;;;;51.83;7.13;;;;;;;2.06;72.12;98221.88;8377173;28;20358;-78
2022/01/31 09:23:13;;;;;;;39.53;6.57;;;;;;;2.12;71.88;98226.09;8394971;28;20314;-78
2022/01/31 09:27:14;;;;;;;35.63;6.30;;;;;;;2.16;72.45;98220.25;8394238;28;20044;-76
2022/01/31 09:31:15;;;;;;;47.17;7.85;;;;;;;2.23;72.21;98207.41;8376778;28;20044;-78
2022/01/31 09:35:16;;;;;;;41.97;6.47;;;;;;;2.25;71.76;98207.94;8394421;28;20106;-77
2022/01/31 09:39:17;;;;;;;53.83;9.82;;;;;;;2.34;71.20;98206.25;8394429;28;20085;-78
2022/01/31 09:48:30;;;;;;;63.30;7.38;;;;;;;2.36;71.22;98188.16;8394216;28;20098;-77
2022/01/31 09:51:44;;;;;;;222.73;55.90;;;;;;;2.45;70.69;98191.78;8398379;28;20057;-77
2022/01/31 09:55:48;;;;;;;38.28;6.18;;;;;;;2.53;69.66;98199.22;8399428;28;20389;-77
2022/01/31 09:59:49;;;;;;;35.08;6.03;;;;;;;2.47;70.35;98195.00;8399680;28;20052;-76
2022/01/31 10:03:53;;;;;;;47.67;6.57;;;;;;;2.50;70.15;98189.09;8399943;28;20041;-76
2022/01/31 10:07:54;;;;;;;36.50;5.65;;;;;;;2.55;69.84;98181.06;8399752;28;20053;-75
2022/01/31 10:12:18;;;;;;;42.70;6.60;;;;;;;2.48;70.19;98167.28;8399298;28;20086;-77
2022/01/31 10:16:30;;;;;;;48.00;6.70;;;;;;;2.55;69.76;98165.06;8399614;28;20102;-77
2022/01/31 10:20:33;;;;;;;38.53;6.18;;;;;;;2.51;70.30;98158.72;8399303;28;20092;-76
2022/01/31 10:24:36;;;;;;;38.75;5.72;;;;;;;2.56;70.29;98156.00;8399380;28;20389;-78
2022/01/31 10:28:40;;;;;;;36.22;5.93;;;;;;;2.62;70.09;98154.88;8399039;28;20052;-77
2022/01/31 10:32:49;;;;;;;45.97;8.05;;;;;;;2.68;69.49;98143.09;8399122;28;20450;-78
2022/01/31 10:36:50;;;;;;;37.70;6.95;;;;;;;2.74;68.99;98131.31;8398412;28;20048;-77
2022/01/31 10:54:05;;;;;;;53.00;9.23;;;;;;;2.90;68.14;98100.78;8397986;28;20182;-78
2022/01/31 10:58:10;;;;;;;58.08;11.68;;;;;;;2.98;67.97;98088.66;8398165;28;20137;-78
2022/01/31 11:02:24;;;;;;;89.93;14.80;;;;;;;3.02;68.03;98091.56;8396917;28;20055;-76
2022/01/31 11:06:25;;;;;;;62.00;11.80;;;;;;;3.07;67.51;98086.19;8397996;28;20083;-76
2022/01/31 11:10:27;;;;;;;46.38;6.82;;;;;;;3.08;67.76;98087.75;8397655;28;20056;-77
2022/01/31 11:14:28;;;;;;;43.53;7.22;;;;;;;3.10;67.13;98080.28;8379350;28;20056;-77
2022/01/31 11:18:30;;;;;;;44.80;8.55;;;;;;;3.11;68.03;98080.00;8379932;28;20049;-77
2022/01/31 11:22:36;;;;;;;71.10;13.15;;;;;;;3.21;67.51;98082.53;8397132;28;20488;-78
2022/01/31 11:26:39;;;;;;;56.92;13.18;;;;;;;3.11;66.96;98076.53;8379814;28;20048;-77
2022/01/31 11:30:42;;;;;;;59.80;13.40;;;;;;;3.18;66.18;98071.63;8396947;28;20585;-77
2022/01/31 11:34:45;;;;;;;83.18;21.23;;;;;;;3.14;66.62;98067.94;8397163;28;20055;-77
2022/01/31 11:38:46;;;;;;;64.78;16.17;;;;;;;3.11;66.25;98060.53;8396520;28;20527;-77
2022/01/31 11:42:49;;;;;;;41.05;6.03;;;;;;;3.11;66.88;98065.84;8378663;28;20510;-78
2022/01/31 11:46:50;;;;;;;36.90;5.57;;;;;;;3.06;66.31;98061.38;8378517;28;20069;-77
2022/01/31 11:50:56;;;;;;;86.95;17.75;;;;;;;3.02;66.24;98056.88;8396187;28;20187;-77
2022/01/31 11:54:59;;;;;;;43.85;8.95;;;;;;;3.01;66.79;98044.66;8344491;28;20102;-77
2022/01/31 11:59:00;;;;;;;91.45;37.13;;;;;;;3.00;67.37;98053.72;8396151;28;20068;-77
2022/01/31 12:03:03;;;;;;;46.03;6.63;;;;;;;2.96;67.28;98054.28;8378085;28;20049;-77
2022/01/31 12:07:30;;;;;;;37.72;5.90;;;;;;;2.96;67.63;98048.94;8378245;28;20055;-77
2022/01/31 12:11:52;;;;;;;36.00;6.28;;;;;;;2.98;67.88;98051.31;8395966;28;20049;-77
2022/01/31 12:20:03;;;;;;;26.38;5.00;;;;;;;2.91;69.27;98041.00;8395393;28;20044;-76
2022/01/31 12:24:21;;;;;;;48.50;5.78;;;;;;;2.89;69.98;98032.50;8377913;28;20048;-77
2022/01/31 12:28:40;;;;;;;40.47;5.82;;;;;;;2.87;70.22;98029.31;8395444;28;20048;-77
2022/01/31 12:32:41;;;;;;;38.92;5.30;;;;;;;2.75;70.81;98020.16;8395463;28;20511;-77
2022/01/31 12:36:42;;;;;;;37.10;5.68;;;;;;;2.71;71.27;98019.91;8394942;28;20063;-76
2022/01/31 12:40:50;;;;;;;42.85;5.75;;;;;;;2.80;71.37;98023.53;8395334;28;20072;-76
2022/01/31 12:44:51;;;;;;;48.97;7.57;;;;;;;2.86;71.64;98027.72;8346307;28;20052;-77
2022/01/31 12:49:10;;;;;;;49.28;9.18;;;;;;;2.86;71.82;98025.06;8360470;28;20060;-78
2022/01/31 12:53:24;;;;;;;68.07;11.30;;;;;;;2.92;72.12;98021.25;8394825;28;20059;-77
2022/01/31 12:57:26;;;;;;;47.53;10.32;;;;;;;2.97;72.20;98007.06;8394876;28;20056;-77
2022/01/31 13:01:34;;;;;;;56.42;9.43;;;;;;;3.01;72.43;98012.63;8342705;28;20041;-77
2022/01/31 13:05:37;;;;;;;38.90;5.60;;;;;;;3.11;72.03;98007.19;8376972;28;20055;-77
2022/01/31 13:09:38;;;;;;;40.00;6.20;;;;;;;3.19;72.04;98004.66;8394631;28;20045;-76
2022/01/31 13:13:39;;;;;;;57.83;8.95;;;;;;;3.25;71.59;98003.50;8394641;28;20071;-77
2022/01/31 13:17:42;;;;;;;43.25;6.10;;;;;;;3.23;71.57;97994.19;8343168;28;20053;-77
2022/01/31 13:21:43;;;;;;;67.10;9.90;;;;;;;3.17;71.56;97996.13;8394370;28;20052;-77
2022/01/31 13:25:44;;;;;;;48.80;7.68;;;;;;;3.09;71.80;97998.66;8379674;28;20080;-77
2022/01/31 13:29:51;;;;;;;47.45;7.32;;;;;;;3.13;71.93;98005.00;8400801;28;20045;-78
2022/01/31 13:33:55;;;;;;;37.45;5.30;;;;;;;3.13;71.83;98005.00;8400278;28;20443;-77
2022/01/31 13:38:08;;;;;;;37.65;6.28;;;;;;;3.07;71.98;98006.16;8400534;28;20063;-76
2022/01/31 13:42:09;;;;;;;38.53;7.43;;;;;;;3.04;71.92;98009.38;8400176;28;20090;-77
2022/01/31 13:50:35;;;;;;;40.55;7.03;;;;;;;2.88;72.61;98019.44;8397849;28;20060;-77
2022/01/31 13:54:36;;;;;;;37.85;5.55;;;;;;;2.91;72.79;98022.31;8399877;28;20063;-77
2022/01/31 13:58:39;;;;;;;39.78;6.85;;;;;;;2.92;73.01;98021.25;8382055;28;20405;-77
2022/01/31 14:02:40;;;;;;;30.85;4.60;;;;;;;2.94;73.24;98019.13;8399519;28;20361;-77
2022/01/31 14:06:41;;;;;;;44.15;6.55;;;;;;;2.93;73.18;98006.84;8399356;28;20052;-77
2022/01/31 14:10:44;;;;;;;38.75;5.18;;;;;;;2.92;73.39;97999.91;8399950;28;20045;-77
2022/01/31 14:14:46;;;;;;;39.78;6.50;;;;;;;2.98;73.14;98009.44;8381626;28;20065;-78
2022/01/31 14:18:49;;;;;;;35.15;5.93;;;;;;;2.97;73.59;97997.19;8381620;28;20048;-78
2022/01/31 14:22:58;;;;;;;30.77;4.88;;;;;;;3.04;73.42;97982.72;8399236;28;20127;-76
2022/01/31 14:27:02;;;;;;;35.03;4.65;;;;;;;2.91;73.61;97982.31;8398992;28;20054;-76
2022/01/31 14:31:04;;;;;;;42.20;6.20;;;;;;;2.70;74.11;97989.00;8398689;28;20070;-78
2022/01/31 14:35:08;;;;;;;44.22;4.63;;;;;;;2.62;74.21;97994.97;8398147;28;20051;-76
2022/01/31 14:39:26;;;;;;;36.53;4.13;;;;;;;2.58;74.43;98004.59;8397794;28;20045;-77
2022/01/31 14:47:52;;;;;;;35.92;4.60;;;;;;;2.56;74.36;98012.06;8398024;28;20119;-77
2022/01/31 14:52:03;;;;;;;41.03;5.95;;;;;;;2.49;74.76;98016.94;8346936;28;20051;-76
2022/01/31 14:56:03;;;;;;;35.28;5.00;;;;;;;2.45;74.92;98026.59;8398229;28;20056;-78
2022/01/31 15:00:14;;;;;;;46.10;5.03;;;;;;;2.44;75.03;98030.31;8362752;28;20075;-78
2022/01/31 15:04:20;;;;;;;37.40;4.05;;;;;;;2.41;75.25;98025.56;8398200;28;20049;-76
2022/01/31 15:08:21;;;;;;;28.75;4.05;;;;;;;2.39;75.39;98022.38;8397700;28;20132;-76
2022/01/31 15:12:22;;;;;;;41.55;4.35;;;;;;;2.35;75.39;98021.34;8397477;28;20056;-76
2022/01/31 15:16:27;;;;;;;50.88;8.30;;;;;;;2.28;75.60;98023.53;8379902;28;20131;-76
2022/01/31 15:20:30;;;;;;;45.10;7.82;;;;;;;2.17;76.03;98014.09;8397524;28;20048;-76
2022/01/31 15:24:31;;;;;;;54.15;8.55;;;;;;;2.03;76.17;98020.03;8397498;28;20517;-76
2022/01/31 15:28:34;;;;;;;40.38;4.95;;;;;;;1.86;76.72;98014.31;8379410;28;20140;-77
2022/01/31 15:32:35;;;;;;;35.83;5.00;;;;;;;1.69;76.93;98024.59;8396748;28;20062;-75
2022/01/31 15:36:36;;;;;;;33.80;5.70;;;;;;;1.50;77.20;98031.63;8380579;28;20485;-77
2022/01/31 15:40:37;;;;;;;43.28;6.15;;;;;;;1.33;77.89;98034.63;8361793;28;20037;-78
2022/01/31 15:44:53;;;;;;;36.13;4.70;;;;;;;1.17;78.25;98036.59;8357864;28;20143;-77
2022/01/31 15:48:54;;;;;;;38.00;5.35;;;;;;;1.06;78.20;98028.94;8381412;28;20384;-77
2022/01/31 15:52:54;;;;;;;31.85;4.68;;;;;;;0.96;78.61;98043.06;8392651;28;20045;-76
2022/01/31 15:56:56;;;;;;;31.90;6.00;;;;;;;0.88;78.74;98046.31;8395588;28;20052;-77
2022/01/31 16:01:01;;;;;;;41.67;6.97;;;;;;;0.79;78.82;98042.63;8328986;28;20512;-75
2022/01/31 16:05:03;;;;;;;157.93;34.75;;;;;;;0.67;79.27;98050.09;8383898;28;20130;-77
2022/01/31 16:09:04;;;;;;;107.30;28.08;;;;;;;0.47;80.00;98044.81;8368259;28;20098;-77
2022/01/31 16:13:05;;;;;;;78.28;18.85;;;;;;;0.35;79.64;98051.22;8364330;28;20499;-76
2022/01/31 16:17:06;;;;;;;64.40;16.40;;;;;;;0.32;79.80;98059.69;8375006;28;20103;-76
2022/01/31 16:21:07;;;;;;;89.53;15.48;;;;;;;0.34;79.98;98052.28;8394413;28;20565;-75
2022/01/31 16:25:11;;;;;;;62.65;17.02;;;;;;;0.38;79.86;98063.94;8394906;28;20052;-76
2022/01/31 16:29:12;;;;;;;90.55;25.17;;;;;;;0.42;79.96;98072.97;8388723;28;20483;-76
2022/01/31 16:33:13;;;;;;;85.57;23.00;;;;;;;0.49;79.92;98079.88;8374318;28;20144;-77
2022/01/31 16:37:14;;;;;;;77.90;19.20;;;;;;;0.57;79.93;98082.00;8363855;28;20506;-76
2022/01/31 16:41:16;;;;;;;75.43;21.10;;;;;;;0.60;79.83;98086.75;8346333;28;20053;-76
2022/01/31 16:45:17;;;;;;;94.05;21.83;;;;;;;0.65;79.68;98094.72;8338714;28;20081;-76
2022/01/31 16:49:18;;;;;;;111.68;26.45;;;;;;;0.69;79.93;98101.09;8383883;28;20053;-76
2022/01/31 16:53:20;;;;;;;104.00;27.38;;;;;;;0.68;80.45;98104.81;8367454;28;20060;-75
2022/01/31 16:57:20;;;;;;;149.90;38.92;;;;;;;0.70;80.14;98108.78;8371581;28;20041;-76
2022/01/31 17:01:24;;;;;;;158.18;39.00;;;;;;;0.72;80.30;98105.88;8357005;28;20161;-76
2022/01/31 17:05:25;;;;;;;105.25;29.42;;;;;;;0.71;80.41;98110.38;8370150;28;20094;-77
2022/01/31 17:09:27;;;;;;;99.30;21.95;;;;;;;0.73;80.46;98118.09;8382988;28;20052;-76
2022/01/31 17:13:28;;;;;;;84.57;19.02;;;;;;;0.72;80.05;98116.50;8322386;28;20063;-76
2022/01/31 17:17:30;;;;;;;65.60;16.73;;;;;;;0.73;80.70;98113.59;8384282;28;20040;-77
2022/01/31 17:21:34;;;;;;;63.67;14.05;;;;;;;0.70;80.16;98123.94;8369581;28;20041;-76
2022/01/31 17:25:35;;;;;;;64.82;15.32;;;;;;;0.71;80.71;98125.53;8391143;28;20140;-77
2022/01/31 17:29:36;;;;;;;54.55;12.70;;;;;;;0.71;80.79;98125.53;8384725;28;20049;-76
2022/01/31 17:33:42;;;;;;;54.78;11.40;;;;;;;0.73;80.64;98128.72;8372936;28;20501;-76
2022/01/31 17:37:47;;;;;;;61.60;10.68;;;;;;;0.74;80.84;98135.66;8386864;28;20045;-76
2022/01/31 17:41:52;;;;;;;48.70;10.13;;;;;;;0.74;81.05;98138.31;8380801;28;20485;-75
2022/01/31 17:45:53;;;;;;;50.70;10.50;;;;;;;0.76;80.95;98134.31;8369205;28;20043;-75
2022/01/31 17:49:54;;;;;;;46.25;11.23;;;;;;;0.78;80.90;98136.69;8388563;28;20102;-75
2022/01/31 17:53:55;;;;;;;59.10;16.88;;;;;;;0.76;80.97;98138.81;8367783;28;20432;-75
2022/01/31 17:57:56;;;;;;;57.35;14.48;;;;;;;0.72;81.27;98138.56;8368083;28;20378;-76
2022/01/31 18:02:00;;;;;;;51.35;13.60;;;;;;;0.69;81.23;98146.25;8367888;28;20049;-75
2022/01/31 18:06:01;;;;;;;62.22;17.83;;;;;;;0.65;81.18;98153.19;8400890;28;20135;-74
2022/01/31 18:10:02;;;;;;;57.38;15.10;;;;;;;0.57;81.50;98151.88;8385257;28;20063;-76
2022/01/31 18:14:03;;;;;;;55.28;9.25;;;;;;;0.49;81.86;98148.94;8329112;28;20060;-77
2022/01/31 18:18:04;;;;;;;52.55;7.82;;;;;;;0.48;81.87;98155.34;8366933;28;20475;-76
2022/01/31 18:22:05;;;;;;;38.30;6.75;;;;;;;0.50;82.09;98155.84;8385224;28;20059;-77
2022/01/31 18:26:06;;;;;;;42.42;6.88;;;;;;;0.56;81.90;98154.78;8400230;28;20057;-76
2022/01/31 18:30:09;;;;;;;88.68;21.48;;;;;;;0.60;81.94;98166.47;8399909;28;20500;-77
2022/01/31 18:34:11;;;;;;;91.65;20.60;;;;;;;0.59;81.92;98186.13;8353753;28;20083;-76
2022/01/31 18:38:12;;;;;;;69.28;15.43;;;;;;;0.57;82.04;98180.28;8380564;28;20081;-77
2022/01/31 18:42:14;;;;;;;63.65;11.77;;;;;;;0.52;82.18;98182.94;8376398;28;20041;-76
2022/01/31 18:46:16;;;;;;;51.67;10.23;;;;;;;0.53;82.33;98181.91;8383737;28;20056;-77
2022/01/31 18:50:23;;;;;;;42.15;7.35;;;;;;;0.50;82.34;98198.34;8397879;28;20114;-77
2022/01/31 18:54:24;;;;;;;42.80;8.40;;;;;;;0.51;82.35;98194.63;8371074;28;20499;-77
2022/01/31 18:58:26;;;;;;;44.08;7.50;;;;;;;0.55;82.56;98198.34;8375633;28;20416;-77
2022/01/31 19:02:27;;;;;;;37.42;7.18;;;;;;;0.58;83.12;98201.25;8379180;28;20052;-76
2022/01/31 19:06:28;;;;;;;31.27;7.07;;;;;;;0.60;82.84;98214.28;8371828;28;20060;-76
2022/01/31 19:10:33;;;;;;;45.42;7.90;;;;;;;0.61;82.66;98206.06;8381247;28;20068;-76
2022/01/31 19:18:39;;;;;;;47.72;7.60;;;;;;;0.62;82.39;98207.66;8376674;28;20497;-78
2022/01/31 19:22:40;;;;;;;38.42;7.80;;;;;;;0.61;82.72;98213.22;8330449;28;20044;-77
2022/01/31 19:26:43;;;;;;;43.13;7.55;;;;;;;0.60;83.08;98219.59;8288389;28;20641;-77
2022/01/31 19:30:44;;;;;;;40.85;9.45;;;;;;;0.58;83.18;98232.38;8368825;28;20130;-77
2022/01/31 19:34:46;;;;;;;52.20;8.82;;;;;;;0.57;83.27;98233.44;8378339;28;20044;-78
2022/01/31 19:38:48;;;;;;;40.53;8.25;;;;;;;0.58;83.09;98243.00;8384338;28;20511;-76
2022/01/31 19:47:09;;;;;;;46.75;8.25;;;;;;;0.58;83.26;98243.00;8367449;28;20472;-77